createdAt,value
2023-01-08T00:00:52.027Z,0.00
2023-01-08T00:01:51.921Z,0.00
2023-01-08T00:02:51.951Z,0.00
2023-01-08T00:03:51.998Z,0.00
2023-01-08T00:04:51.873Z,0.00
2023-01-08T00:05:51.887Z,0.00
2023-01-08T00:06:51.845Z,0.00
2023-01-08T00:07:51.853Z,0.00
2023-01-08T00:08:51.824Z,0.00
2023-01-08T00:09:51.826Z,0.00
2023-01-08T00:10:51.804Z,0.00
2023-01-08T00:11:51.827Z,0.00
2023-01-08T00:12:51.815Z,0.00
2023-01-08T00:13:51.839Z,0.00
2023-01-08T00:14:51.752Z,0.00
2023-01-08T00:15:51.774Z,0.00
2023-01-08T00:16:51.844Z,0.00
2023-01-08T00:17:51.746Z,0.00
2023-01-08T00:18:51.796Z,0.00
2023-01-08T00:19:51.741Z,0.00
2023-01-08T00:20:51.692Z,0.00
2023-01-08T00:21:51.770Z,0.00
2023-01-08T00:22:51.687Z,0.00
2023-01-08T00:23:51.670Z,0.00
2023-01-08T00:24:51.656Z,0.00
2023-01-08T00:25:51.732Z,0.00
2023-01-08T00:26:51.668Z,0.00
2023-01-08T00:27:51.670Z,0.00
2023-01-08T00:28:51.622Z,0.00
2023-01-08T00:29:51.615Z,0.00
2023-01-08T00:30:51.632Z,0.00
2023-01-08T00:31:51.595Z,0.00
2023-01-08T00:32:51.573Z,0.00
2023-01-08T00:33:51.630Z,0.00
2023-01-08T00:34:51.554Z,0.00
2023-01-08T00:35:51.585Z,0.00
2023-01-08T00:36:51.529Z,0.00
2023-01-08T00:37:51.741Z,0.00
2023-01-08T00:38:51.591Z,0.00
2023-01-08T00:39:51.513Z,0.00
2023-01-08T00:40:51.489Z,0.00
2023-01-08T00:41:51.478Z,0.00
2023-01-08T00:42:51.464Z,0.00
2023-01-08T00:43:51.515Z,0.00
2023-01-08T00:44:51.505Z,0.00
2023-01-08T00:45:51.534Z,0.00
2023-01-08T00:46:51.413Z,0.00
2023-01-08T00:47:51.419Z,0.00
2023-01-08T00:48:51.591Z,0.00
2023-01-08T00:49:51.415Z,0.00
2023-01-08T00:50:51.365Z,0.00
2023-01-08T00:51:51.374Z,0.00
2023-01-08T00:52:51.380Z,0.00
2023-01-08T00:53:51.478Z,0.00
2023-01-08T00:54:51.478Z,0.00
2023-01-08T00:55:51.321Z,0.00
2023-01-08T00:56:51.352Z,0.00
2023-01-08T00:57:51.301Z,0.00
2023-01-08T00:58:51.282Z,0.00
2023-01-08T00:59:51.304Z,0.00
2023-01-08T01:00:51.326Z,0.00
2023-01-08T01:01:51.488Z,0.00
2023-01-08T01:02:51.245Z,0.00
2023-01-08T01:03:51.314Z,0.00
2023-01-08T01:04:52.359Z,0.00
2023-01-08T01:05:51.223Z,0.00
2023-01-08T01:06:51.243Z,0.00
2023-01-08T01:07:51.213Z,0.00
2023-01-08T01:08:51.285Z,0.00
2023-01-08T01:09:51.245Z,0.00
2023-01-08T01:10:51.164Z,0.00
2023-01-08T01:11:51.179Z,0.00
2023-01-08T01:12:51.154Z,0.00
2023-01-08T01:13:51.160Z,0.00
2023-01-08T01:14:51.107Z,0.00
2023-01-08T01:15:51.135Z,0.00
2023-01-08T01:16:51.265Z,0.00
2023-01-08T01:17:51.094Z,0.00
2023-01-08T01:18:51.222Z,0.00
2023-01-08T01:19:51.073Z,0.00
2023-01-08T01:20:51.083Z,0.00
2023-01-08T01:21:51.045Z,0.00
2023-01-08T01:22:51.085Z,0.00
2023-01-08T01:23:51.030Z,0.00
2023-01-08T01:24:51.051Z,0.00
2023-01-08T01:25:51.398Z,0.00
2023-01-08T01:26:51.026Z,0.00
2023-01-08T01:27:51.000Z,0.00
2023-01-08T01:28:51.297Z,0.00
2023-01-08T01:29:50.980Z,0.00
2023-01-08T01:30:51.025Z,0.00
2023-01-08T01:31:50.955Z,0.00
2023-01-08T01:32:50.951Z,0.00
2023-01-08T01:33:50.900Z,0.00
2023-01-08T01:34:50.924Z,0.00
2023-01-08T01:35:50.940Z,0.00
2023-01-08T01:36:50.890Z,0.00
2023-01-08T01:37:50.868Z,0.00
2023-01-08T01:38:51.124Z,0.00
2023-01-08T01:39:50.846Z,0.00
2023-01-08T01:40:50.839Z,0.00
2023-01-08T01:41:50.843Z,0.00
2023-01-08T01:42:50.857Z,0.00
2023-01-08T01:43:50.806Z,0.00
2023-01-08T01:44:50.790Z,0.00
2023-01-08T01:45:50.820Z,0.00
2023-01-08T01:46:50.775Z,0.00
2023-01-08T01:47:50.769Z,0.00
2023-01-08T01:48:50.765Z,0.00
2023-01-08T01:49:50.745Z,0.00
2023-01-08T01:50:50.752Z,0.00
2023-01-08T01:51:50.742Z,0.00
2023-01-08T01:52:50.710Z,0.00
2023-01-08T01:53:50.760Z,0.00
2023-01-08T01:54:50.690Z,0.00
2023-01-08T01:55:50.672Z,0.00
2023-01-08T01:56:50.689Z,0.00
2023-01-08T01:57:50.683Z,0.00
2023-01-08T01:58:50.674Z,0.00
2023-01-08T01:59:50.649Z,0.00
2023-01-08T02:00:50.610Z,0.00
2023-01-08T02:01:50.719Z,0.00
2023-01-08T02:02:50.608Z,0.00
2023-01-08T02:03:50.623Z,0.00
2023-01-08T02:04:50.580Z,0.00
2023-01-08T02:05:50.602Z,0.00
2023-01-08T02:06:50.585Z,0.00
2023-01-08T02:07:50.623Z,0.00
2023-01-08T02:08:51.079Z,0.00
2023-01-08T02:09:50.537Z,0.00
2023-01-08T02:10:50.509Z,0.00
2023-01-08T02:11:50.494Z,0.00
2023-01-08T02:12:50.508Z,0.00
2023-01-08T02:13:50.515Z,0.00
2023-01-08T02:14:50.491Z,0.00
2023-01-08T02:15:50.464Z,0.00
2023-01-08T02:16:50.678Z,0.00
2023-01-08T02:17:50.579Z,0.00
2023-01-08T02:18:50.458Z,0.00
2023-01-08T02:19:50.472Z,0.00
2023-01-08T02:20:50.399Z,0.00
2023-01-08T02:21:50.405Z,0.00
2023-01-08T02:22:50.383Z,0.00
2023-01-08T02:23:50.526Z,0.00
2023-01-08T02:24:50.448Z,0.00
2023-01-08T02:25:50.364Z,0.00
2023-01-08T02:26:50.377Z,0.00
2023-01-08T02:27:50.338Z,0.00
2023-01-08T02:28:50.319Z,0.00
2023-01-08T02:29:50.425Z,0.00
2023-01-08T02:30:50.358Z,0.00
2023-01-08T02:31:50.285Z,0.00
2023-01-08T02:32:50.283Z,0.00
2023-01-08T02:33:50.251Z,0.00
2023-01-08T02:34:50.278Z,0.00
2023-01-08T02:35:50.240Z,0.00
2023-01-08T02:36:50.222Z,0.00
2023-01-08T02:37:50.213Z,0.00
2023-01-08T02:38:50.220Z,0.00
2023-01-08T02:39:50.209Z,0.00
2023-01-08T02:40:50.192Z,0.00
2023-01-08T02:41:50.179Z,0.00
2023-01-08T02:42:50.204Z,0.00
2023-01-08T02:43:50.206Z,0.00
2023-01-08T02:44:50.159Z,0.00
2023-01-08T02:45:50.219Z,0.00
2023-01-08T02:46:50.129Z,0.00
2023-01-08T02:47:50.107Z,0.00
2023-01-08T02:48:50.109Z,0.00
2023-01-08T02:49:50.109Z,0.00
2023-01-08T02:50:50.094Z,0.00
2023-01-08T02:51:50.067Z,0.00
2023-01-08T02:52:50.063Z,0.00
2023-01-08T02:53:50.054Z,0.00
2023-01-08T02:54:50.059Z,0.00
2023-01-08T02:55:50.031Z,0.00
2023-01-08T02:56:50.085Z,0.00
2023-01-08T02:57:50.011Z,0.00
2023-01-08T02:58:50.046Z,0.00
2023-01-08T02:59:50.021Z,0.00
2023-01-08T03:00:49.976Z,0.00
2023-01-08T03:01:50.126Z,0.00
2023-01-08T03:02:50.724Z,0.00
2023-01-08T03:03:50.186Z,0.00
2023-01-08T03:04:49.930Z,0.00
2023-01-08T03:05:49.945Z,0.00
2023-01-08T03:06:49.919Z,0.00
2023-01-08T03:07:49.918Z,0.00
2023-01-08T03:08:50.020Z,0.00
2023-01-08T03:09:49.885Z,0.00
2023-01-08T03:10:49.939Z,0.00
2023-01-08T03:11:49.847Z,0.00
2023-01-08T03:12:49.847Z,0.00
2023-01-08T03:13:49.828Z,0.00
2023-01-08T03:14:49.830Z,0.00
2023-01-08T03:15:49.802Z,0.00
2023-01-08T03:16:49.901Z,0.00
2023-01-08T03:17:49.962Z,0.00
2023-01-08T03:18:49.781Z,0.00
2023-01-08T03:19:49.766Z,0.00
2023-01-08T03:20:49.791Z,0.00
2023-01-08T03:21:49.737Z,0.00
2023-01-08T03:22:49.746Z,0.00
2023-01-08T03:23:49.732Z,0.00
2023-01-08T03:24:49.723Z,0.00
2023-01-08T03:25:49.698Z,0.00
2023-01-08T03:26:49.738Z,0.00
2023-01-08T03:27:49.687Z,0.00
2023-01-08T03:28:49.674Z,0.00
2023-01-08T03:29:49.682Z,0.00
2023-01-08T03:30:49.751Z,0.00
2023-01-08T03:31:49.676Z,0.00
2023-01-08T03:32:49.640Z,0.00
2023-01-08T03:33:49.613Z,0.00
2023-01-08T03:34:49.637Z,0.00
2023-01-08T03:35:49.599Z,0.00
2023-01-08T03:36:49.613Z,0.00
2023-01-08T03:37:49.583Z,0.00
2023-01-08T03:38:49.649Z,0.00
2023-01-08T03:39:49.551Z,0.00
2023-01-08T03:40:49.548Z,0.00
2023-01-08T03:41:49.527Z,0.00
2023-01-08T03:42:49.609Z,0.00
2023-01-08T03:43:49.515Z,0.00
2023-01-08T03:44:49.499Z,0.00
2023-01-08T03:45:49.515Z,0.00
2023-01-08T03:46:49.577Z,0.00
2023-01-08T03:47:49.461Z,0.00
2023-01-08T03:48:49.479Z,0.00
2023-01-08T03:49:49.540Z,0.00
2023-01-08T03:50:49.681Z,0.00
2023-01-08T03:51:49.450Z,0.00
2023-01-08T03:52:49.516Z,0.00
2023-01-08T03:53:49.421Z,0.00
2023-01-08T03:54:49.409Z,0.00
2023-01-08T03:55:49.390Z,0.00
2023-01-08T03:56:49.402Z,0.00
2023-01-08T03:57:49.365Z,0.00
2023-01-08T03:58:49.561Z,0.00
2023-01-08T03:59:49.330Z,0.00
2023-01-08T04:00:49.329Z,0.00
2023-01-08T04:01:49.443Z,0.00
2023-01-08T04:02:49.321Z,0.00
2023-01-08T04:03:49.700Z,0.00
2023-01-08T04:04:49.299Z,0.00
2023-01-08T04:05:49.261Z,0.00
2023-01-08T04:06:49.291Z,0.00
2023-01-08T04:07:49.254Z,0.00
2023-01-08T04:08:49.360Z,0.00
2023-01-08T04:09:49.249Z,0.00
2023-01-08T04:10:49.228Z,0.00
2023-01-08T04:11:49.236Z,0.00
2023-01-08T04:12:49.226Z,0.00
2023-01-08T04:13:49.208Z,0.00
2023-01-08T04:14:49.213Z,0.00
2023-01-08T04:15:49.237Z,0.00
2023-01-08T04:16:49.165Z,0.00
2023-01-08T04:17:49.155Z,0.00
2023-01-08T04:18:49.165Z,0.00
2023-01-08T04:19:49.157Z,0.00
2023-01-08T04:20:49.123Z,0.00
2023-01-08T04:21:49.099Z,0.00
2023-01-08T04:22:49.110Z,0.00
2023-01-08T04:23:49.101Z,0.00
2023-01-08T04:24:49.126Z,0.00
2023-01-08T04:25:49.052Z,0.00
2023-01-08T04:26:49.058Z,0.00
2023-01-08T04:27:49.052Z,0.00
2023-01-08T04:28:49.044Z,0.00
2023-01-08T04:29:49.012Z,0.00
2023-01-08T04:30:49.127Z,0.00
2023-01-08T04:31:49.002Z,0.00
2023-01-08T04:32:49.014Z,0.00
2023-01-08T04:33:48.966Z,0.00
2023-01-08T04:34:48.975Z,0.00
2023-01-08T04:35:48.999Z,0.00
2023-01-08T04:36:49.130Z,0.00
2023-01-08T04:37:48.932Z,0.00
2023-01-08T04:38:48.926Z,0.00
2023-01-08T04:39:48.902Z,0.00
2023-01-08T04:40:48.901Z,0.00
2023-01-08T04:41:48.942Z,0.00
2023-01-08T04:42:48.899Z,0.00
2023-01-08T04:43:48.877Z,0.00
2023-01-08T04:44:48.931Z,0.00
2023-01-08T04:45:48.873Z,0.00
2023-01-08T04:46:48.858Z,0.00
2023-01-08T04:47:48.816Z,0.00
2023-01-08T04:48:48.821Z,0.00
2023-01-08T04:49:48.802Z,0.00
2023-01-08T04:50:48.799Z,0.00
2023-01-08T04:51:48.807Z,0.00
2023-01-08T04:52:48.778Z,0.00
2023-01-08T04:53:48.762Z,0.00
2023-01-08T04:54:48.761Z,0.00
2023-01-08T04:55:48.736Z,0.00
2023-01-08T04:56:48.744Z,0.00
2023-01-08T04:57:48.773Z,0.00
2023-01-08T04:58:48.723Z,0.00
2023-01-08T04:59:48.708Z,0.00
2023-01-08T05:00:48.681Z,0.00
2023-01-08T05:01:48.832Z,0.00
2023-01-08T05:02:48.852Z,0.00
2023-01-08T05:03:48.672Z,0.00
2023-01-08T05:04:48.664Z,0.00
2023-01-08T05:05:49.993Z,0.00
2023-01-08T05:06:48.629Z,0.00
2023-01-08T05:07:48.678Z,0.00
2023-01-08T05:08:48.613Z,0.00
2023-01-08T05:09:48.670Z,0.00
2023-01-08T05:10:48.580Z,0.00
2023-01-08T05:11:48.566Z,0.00
2023-01-08T05:12:48.611Z,0.00
2023-01-08T05:13:48.556Z,0.00
2023-01-08T05:14:48.586Z,0.00
2023-01-08T05:15:48.801Z,0.00
2023-01-08T05:16:48.508Z,0.00
2023-01-08T05:17:48.499Z,0.00
2023-01-08T05:18:48.508Z,0.00
2023-01-08T05:19:48.471Z,0.00
2023-01-08T05:20:48.513Z,0.00
2023-01-08T05:21:48.480Z,0.00
2023-01-08T05:22:48.473Z,0.00
2023-01-08T05:23:48.510Z,0.00
2023-01-08T05:24:48.457Z,0.00
2023-01-08T05:25:48.481Z,0.00
2023-01-08T05:26:48.977Z,0.00
2023-01-08T05:27:48.396Z,0.00
2023-01-08T05:28:48.415Z,0.00
2023-01-08T05:29:48.364Z,0.00
2023-01-08T05:30:48.412Z,0.00
2023-01-08T05:31:48.389Z,0.00
2023-01-08T05:32:48.364Z,0.00
2023-01-08T05:33:56.641Z,0.00
2023-01-08T05:34:48.328Z,0.00
2023-01-08T05:35:48.342Z,0.00
2023-01-08T05:36:48.350Z,0.00
2023-01-08T05:37:48.390Z,0.00
2023-01-08T05:38:48.438Z,0.00
2023-01-08T05:39:48.280Z,0.00
2023-01-08T05:40:48.250Z,0.00
2023-01-08T05:41:48.244Z,0.00
2023-01-08T05:42:48.228Z,0.00
2023-01-08T05:43:48.228Z,0.00
2023-01-08T05:44:48.284Z,0.00
2023-01-08T05:45:48.207Z,0.00
2023-01-08T05:46:48.225Z,0.00
2023-01-08T05:47:48.184Z,0.00
2023-01-08T05:48:48.154Z,0.00
2023-01-08T05:49:48.180Z,0.00
2023-01-08T05:50:48.165Z,0.00
2023-01-08T05:51:49.248Z,0.00
2023-01-08T05:52:48.150Z,0.00
2023-01-08T05:53:48.125Z,0.00
2023-01-08T05:54:48.112Z,0.00
2023-01-08T05:55:48.117Z,0.00
2023-01-08T05:56:48.079Z,0.00
2023-01-08T05:57:48.080Z,0.00
2023-01-08T05:58:48.066Z,0.00
2023-01-08T05:59:49.793Z,0.00
2023-01-08T06:00:48.093Z,0.00
2023-01-08T06:01:48.137Z,0.00
2023-01-08T06:02:48.258Z,0.00
2023-01-08T06:03:48.119Z,0.00
2023-01-08T06:04:48.045Z,0.00
2023-01-08T06:05:48.024Z,0.00
2023-01-08T06:06:48.006Z,0.00
2023-01-08T06:08:55.800Z,0.00
2023-01-08T06:09:56.774Z,0.00
2023-01-08T06:10:56.796Z,0.00
2023-01-08T06:11:56.736Z,0.00
2023-01-08T06:12:56.750Z,0.00
2023-01-08T06:13:56.845Z,0.00
2023-01-08T06:14:56.730Z,0.00
2023-01-08T06:15:56.959Z,0.00
2023-01-08T06:16:56.721Z,0.00
2023-01-08T06:17:56.711Z,0.00
2023-01-08T06:18:56.655Z,0.00
2023-01-08T06:19:56.655Z,0.00
2023-01-08T06:20:56.637Z,0.00
2023-01-08T06:21:56.822Z,0.00
2023-01-08T06:22:56.639Z,0.00
2023-01-08T06:23:56.603Z,0.00
2023-01-08T06:24:56.722Z,0.00
2023-01-08T06:25:56.644Z,0.00
2023-01-08T06:26:56.609Z,0.00
2023-01-08T06:27:56.591Z,0.00
2023-01-08T06:28:56.551Z,0.00
2023-01-08T06:29:56.552Z,0.00
2023-01-08T06:30:56.611Z,0.00
2023-01-08T06:31:56.527Z,0.00
2023-01-08T06:32:56.511Z,0.00
2023-01-08T06:33:56.512Z,0.00
2023-01-08T06:34:56.495Z,0.00
2023-01-08T06:35:56.485Z,0.00
2023-01-08T06:36:56.523Z,0.00
2023-01-08T06:37:56.471Z,0.00
2023-01-08T06:38:56.445Z,0.00
2023-01-08T06:39:56.434Z,0.00
2023-01-08T06:40:56.464Z,0.00
2023-01-08T06:41:56.415Z,0.00
2023-01-08T06:42:56.430Z,0.00
2023-01-08T06:43:56.377Z,0.00
2023-01-08T06:44:56.385Z,0.00
2023-01-08T06:45:56.375Z,0.00
2023-01-08T06:46:56.449Z,0.00
2023-01-08T06:47:56.369Z,0.00
2023-01-08T06:48:56.397Z,0.00
2023-01-08T06:49:56.338Z,0.00
2023-01-08T06:50:56.363Z,0.00
2023-01-08T06:51:56.355Z,0.00
2023-01-08T06:52:58.202Z,0.00
2023-01-08T06:54:02.826Z,0.00
2023-01-08T06:54:56.403Z,0.00
2023-01-08T06:55:56.322Z,0.00
2023-01-08T06:56:56.272Z,0.00
2023-01-08T06:57:56.663Z,0.00
2023-01-08T06:58:56.562Z,0.00
2023-01-08T06:59:56.522Z,0.00
2023-01-08T07:00:56.202Z,0.00
2023-01-08T07:01:56.496Z,0.00
2023-01-08T07:02:56.393Z,0.00
2023-01-08T07:03:56.197Z,1.00
2023-01-08T07:04:56.182Z,0.00
2023-01-08T07:05:56.205Z,0.00
2023-01-08T07:06:56.113Z,1.00
2023-01-08T07:07:56.088Z,1.00
2023-01-08T07:08:56.080Z,1.00
2023-01-08T07:09:56.072Z,2.00
2023-01-08T07:10:56.120Z,2.00
2023-01-08T07:11:56.073Z,2.00
2023-01-08T07:12:56.044Z,1.00
2023-01-08T07:13:56.184Z,0.00
2023-01-08T07:14:56.015Z,2.00
2023-01-08T07:15:56.091Z,1.00
2023-01-08T07:16:57.884Z,1.00
2023-01-08T07:17:55.991Z,3.00
2023-01-08T07:18:55.960Z,2.00
2023-01-08T07:19:55.952Z,2.00
2023-01-08T07:20:56.778Z,1.00
2023-01-08T07:21:55.953Z,3.00
2023-01-08T07:22:55.913Z,3.00
2023-01-08T07:23:55.935Z,1.00
2023-01-08T07:24:55.898Z,1.00
2023-01-08T07:25:55.908Z,1.00
2023-01-08T07:26:55.864Z,2.00
2023-01-08T07:28:53.528Z,10.00
2023-01-08T07:29:54.484Z,9.00
2023-01-08T07:30:54.569Z,10.00
2023-01-08T07:31:54.457Z,12.00
2023-01-08T07:32:54.505Z,11.00
2023-01-08T07:33:54.619Z,9.00
2023-01-08T07:34:54.442Z,11.00
2023-01-08T07:35:54.452Z,16.00
2023-01-08T07:36:54.704Z,18.00
2023-01-08T07:37:54.695Z,24.00
2023-01-08T07:38:54.549Z,36.00
2023-01-08T07:39:54.309Z,47.00
2023-01-08T07:40:54.364Z,55.00
2023-01-08T07:41:54.471Z,67.00
2023-01-08T07:42:54.300Z,66.00
2023-01-08T07:43:54.268Z,63.00
2023-01-08T07:44:54.265Z,64.00
2023-01-08T07:45:54.289Z,67.00
2023-01-08T07:46:54.955Z,68.00
2023-01-08T07:47:54.237Z,71.00
2023-01-08T07:48:54.718Z,68.00
2023-01-08T07:49:54.259Z,69.00
2023-01-08T07:50:54.547Z,81.00
2023-01-08T07:51:55.065Z,95.00
2023-01-08T07:52:55.062Z,111.00
2023-01-08T07:53:54.202Z,129.00
2023-01-08T07:54:54.190Z,145.00
2023-01-08T07:55:54.190Z,165.00
2023-01-08T07:56:54.164Z,179.00
2023-01-08T07:57:54.193Z,188.00
2023-01-08T07:58:54.318Z,195.00
2023-01-08T07:59:54.165Z,192.00
2023-01-08T08:00:54.155Z,186.00
2023-01-08T08:01:54.537Z,181.00
2023-01-08T08:02:54.213Z,172.00
2023-01-08T08:03:54.147Z,171.00
2023-01-08T08:04:54.055Z,173.00
2023-01-08T08:05:54.070Z,166.00
2023-01-08T08:06:54.070Z,174.00
2023-01-08T08:07:54.037Z,205.00
2023-01-08T08:08:54.027Z,240.00
2023-01-08T08:09:54.033Z,267.00
2023-01-08T08:10:54.131Z,291.00
2023-01-08T08:11:54.011Z,305.00
2023-01-08T08:12:54.016Z,318.00
2023-01-08T08:13:56.577Z,329.00
2023-01-08T08:14:54.000Z,342.00
2023-01-08T08:15:54.522Z,363.00
2023-01-08T08:16:53.938Z,379.00
2023-01-08T08:17:54.020Z,397.00
2023-01-08T08:18:53.947Z,410.00
2023-01-08T08:19:53.900Z,424.00
2023-01-08T08:20:53.927Z,430.00
2023-01-08T08:21:53.910Z,438.00
2023-01-08T08:22:53.867Z,447.00
2023-01-08T08:23:53.946Z,464.00
2023-01-08T08:24:53.884Z,486.00
2023-01-08T08:25:53.847Z,505.00
2023-01-08T08:26:53.861Z,509.00
2023-01-08T08:27:53.863Z,503.00
2023-01-08T08:28:53.804Z,500.00
2023-01-08T08:29:53.825Z,508.00
2023-01-08T08:30:53.789Z,513.00
2023-01-08T08:31:53.866Z,521.00
2023-01-08T08:32:53.853Z,533.00
2023-01-08T08:33:53.807Z,548.00
2023-01-08T08:34:53.755Z,577.00
2023-01-08T08:35:53.776Z,633.00
2023-01-08T08:36:53.807Z,707.00
2023-01-08T08:37:53.756Z,803.00
2023-01-08T08:38:53.867Z,825.00
2023-01-08T08:39:53.858Z,812.00
2023-01-08T08:40:53.674Z,822.00
2023-01-08T08:41:53.783Z,847.00
2023-01-08T08:42:53.676Z,882.00
2023-01-08T08:43:54.535Z,952.00
2023-01-08T08:44:53.685Z,1047.00
2023-01-08T08:45:53.654Z,1177.00
2023-01-08T08:46:53.735Z,1185.00
2023-01-08T08:47:53.649Z,1123.00
2023-01-08T08:48:53.596Z,1055.00
2023-01-08T08:49:53.589Z,1000.00
2023-01-08T08:50:53.615Z,963.00
2023-01-08T08:51:53.590Z,956.00
2023-01-08T08:52:53.550Z,1074.00
2023-01-08T08:53:54.490Z,1322.00
2023-01-08T08:54:53.804Z,1663.00
2023-01-08T08:55:53.621Z,1410.00
2023-01-08T08:56:54.543Z,1428.00
2023-01-08T08:57:53.551Z,1412.00
2023-01-08T08:58:53.507Z,1597.00
2023-01-08T08:59:53.479Z,1651.00
2023-01-08T09:00:53.643Z,1670.00
2023-01-08T09:01:53.688Z,1689.00
2023-01-08T09:02:53.588Z,1781.00
2023-01-08T09:03:53.452Z,1836.00
2023-01-08T09:04:53.444Z,1822.00
2023-01-08T09:05:53.415Z,1924.00
2023-01-08T09:06:53.422Z,1787.00
2023-01-08T09:07:53.415Z,1868.00
2023-01-08T09:08:53.725Z,1920.00
2023-01-08T09:09:53.381Z,1930.00
2023-01-08T09:10:53.353Z,1962.00
2023-01-08T09:11:53.393Z,1978.00
2023-01-08T09:12:53.365Z,2005.00
2023-01-08T09:13:53.433Z,2006.00
2023-01-08T09:14:53.321Z,2031.00
2023-01-08T09:15:53.416Z,2048.00
2023-01-08T09:16:53.326Z,2068.00
2023-01-08T09:17:53.317Z,2072.00
2023-01-08T09:18:53.373Z,2127.00
2023-01-08T09:19:53.296Z,2123.00
2023-01-08T09:20:53.254Z,2137.00
2023-01-08T09:21:53.242Z,2153.00
2023-01-08T09:22:53.253Z,2180.00
2023-01-08T09:23:53.272Z,2204.00
2023-01-08T09:24:53.237Z,2243.00
2023-01-08T09:25:53.605Z,2303.00
2023-01-08T09:26:53.207Z,2327.00
2023-01-08T09:27:53.261Z,2347.00
2023-01-08T09:28:53.209Z,2362.00
2023-01-08T09:29:53.241Z,2415.00
2023-01-08T09:30:53.269Z,2424.00
2023-01-08T09:31:53.247Z,2488.00
2023-01-08T09:32:53.264Z,2496.00
2023-01-08T09:33:53.280Z,2528.00
2023-01-08T09:34:53.146Z,2560.00
2023-01-08T09:35:53.143Z,2594.00
2023-01-08T09:36:53.107Z,2589.00
2023-01-08T09:37:53.702Z,2444.00
2023-01-08T09:38:53.366Z,3687.00
2023-01-08T09:40:01.739Z,2434.00
2023-01-08T09:40:53.139Z,2816.00
2023-01-08T09:41:53.339Z,4410.00
2023-01-08T09:42:53.147Z,4814.00
2023-01-08T09:43:53.048Z,3525.00
2023-01-08T09:44:53.109Z,2956.00
2023-01-08T09:45:53.092Z,2972.00
2023-01-08T09:46:53.115Z,3001.00
2023-01-08T09:47:53.024Z,2815.00
2023-01-08T09:48:53.183Z,1230.00
2023-01-08T09:49:53.004Z,3923.00
2023-01-08T09:50:53.085Z,10028.00
2023-01-08T09:51:52.958Z,6214.00
2023-01-08T09:52:52.937Z,4432.00
2023-01-08T09:53:52.934Z,10622.00
2023-01-08T09:54:53.220Z,9304.00
2023-01-08T09:56:08.670Z,5676.00
2023-01-08T09:56:52.907Z,7437.00
2023-01-08T09:57:52.921Z,6647.00
2023-01-08T09:58:52.949Z,12458.00
2023-01-08T09:59:52.903Z,16870.00
2023-01-08T10:00:52.929Z,16809.00
2023-01-08T10:01:52.939Z,18474.00
2023-01-08T10:02:52.850Z,11681.00
2023-01-08T10:03:52.839Z,7328.00
2023-01-08T10:04:54.453Z,13941.00
2023-01-08T10:05:52.857Z,12819.00
2023-01-08T10:06:52.805Z,16938.00
2023-01-08T10:07:52.783Z,19076.00
2023-01-08T10:08:52.804Z,14206.00
2023-01-08T10:09:52.798Z,10408.00
2023-01-08T10:10:52.795Z,7580.00
2023-01-08T10:11:52.815Z,9353.00
2023-01-08T10:12:52.715Z,17103.00
2023-01-08T10:13:52.734Z,16860.00
2023-01-08T10:14:54.400Z,15327.00
2023-01-08T10:15:52.771Z,12883.00
2023-01-08T10:16:52.681Z,14768.00
2023-01-08T10:17:52.761Z,21478.00
2023-01-08T10:18:52.824Z,28314.00
2023-01-08T10:19:52.692Z,26444.00
2023-01-08T10:20:54.678Z,11404.00
2023-01-08T10:21:52.753Z,7518.00
2023-01-08T10:22:52.707Z,24706.00
2023-01-08T10:23:52.703Z,26947.00
2023-01-08T10:24:52.597Z,29373.00
2023-01-08T10:25:52.702Z,14657.00
2023-01-08T10:26:54.417Z,30101.00
2023-01-08T10:27:52.577Z,32863.00
2023-01-08T10:28:52.560Z,26967.00
2023-01-08T10:29:52.578Z,32218.00
2023-01-08T10:30:53.005Z,29454.00
2023-01-08T10:31:52.581Z,19594.00
2023-01-08T10:32:54.635Z,28398.00
2023-01-08T10:33:52.499Z,25755.00
2023-01-08T10:34:52.989Z,18446.00
2023-01-08T10:35:52.694Z,17322.00
2023-01-08T10:36:52.499Z,5410.00
2023-01-08T10:37:52.466Z,7729.00
2023-01-08T10:38:52.455Z,18019.00
2023-01-08T10:39:52.494Z,14775.00
2023-01-08T10:40:52.425Z,27170.00
2023-01-08T10:41:52.471Z,6492.00
2023-01-08T10:42:52.519Z,19641.00
2023-01-08T10:43:52.388Z,13274.00
2023-01-08T10:44:52.407Z,13819.00
2023-01-08T10:45:52.387Z,7896.00
2023-01-08T10:46:52.358Z,6924.00
2023-01-08T10:47:56.801Z,3795.00
2023-01-08T10:48:52.362Z,19983.00
2023-01-08T10:49:52.332Z,28626.00
2023-01-08T10:50:52.311Z,11806.00
2023-01-08T10:51:52.317Z,3100.00
2023-01-08T10:52:52.313Z,27057.00
2023-01-08T10:53:52.314Z,17909.00
2023-01-08T10:54:52.271Z,6672.00
2023-01-08T10:55:52.314Z,6434.00
2023-01-08T10:56:52.317Z,5323.00
2023-01-08T10:57:52.293Z,4782.00
2023-01-08T10:58:52.462Z,5458.00
2023-01-08T10:59:52.242Z,5166.00
2023-01-08T11:00:52.443Z,4984.00
2023-01-08T11:01:52.561Z,4319.00
2023-01-08T11:02:52.189Z,2907.00
2023-01-08T11:03:52.209Z,5269.00
2023-01-08T11:04:52.187Z,9057.00
2023-01-08T11:05:52.156Z,4145.00
2023-01-08T11:06:52.148Z,7809.00
2023-01-08T11:07:52.144Z,4905.00
2023-01-08T11:08:52.149Z,5842.00
2023-01-08T11:09:52.122Z,3582.00
2023-01-08T11:10:52.101Z,8245.00
2023-01-08T11:11:52.169Z,4385.00
2023-01-08T11:12:52.185Z,5984.00
2023-01-08T11:13:52.169Z,4797.00
2023-01-08T11:14:52.567Z,3688.00
2023-01-08T11:15:52.076Z,4427.00
2023-01-08T11:16:52.085Z,3287.00
2023-01-08T11:17:52.037Z,7997.00
2023-01-08T11:18:52.012Z,4984.00
2023-01-08T11:19:52.052Z,7349.00
2023-01-08T11:20:52.015Z,5834.00
2023-01-08T11:21:52.005Z,1746.00
2023-01-08T11:22:51.981Z,11248.00
2023-01-08T11:23:52.002Z,2306.00
2023-01-08T11:24:51.976Z,15725.00
2023-01-08T11:25:51.951Z,20652.00
2023-01-08T11:26:51.934Z,8432.00
2023-01-08T11:27:51.994Z,18110.00
2023-01-08T11:28:51.925Z,7138.00
2023-01-08T11:29:51.921Z,8262.00
2023-01-08T11:30:51.891Z,8013.00
2023-01-08T11:31:51.935Z,7203.00
2023-01-08T11:32:52.204Z,5475.00
2023-01-08T11:33:51.865Z,6581.00
2023-01-08T11:34:51.870Z,6348.00
2023-01-08T11:35:51.862Z,6186.00
2023-01-08T11:36:51.910Z,2262.00
2023-01-08T11:37:51.846Z,12007.00
2023-01-08T11:38:51.825Z,12485.00
2023-01-08T11:39:51.815Z,10643.00
2023-01-08T11:40:51.817Z,7207.00
2023-01-08T11:41:51.841Z,7426.00
2023-01-08T11:42:51.775Z,4365.00
2023-01-08T11:43:51.850Z,8827.00
2023-01-08T11:44:51.750Z,15613.00
2023-01-08T11:45:51.846Z,5055.00
2023-01-08T11:46:51.739Z,11994.00
2023-01-08T11:47:51.752Z,67336.00
2023-01-08T11:48:51.729Z,29212.00
2023-01-08T11:49:51.847Z,17885.00
2023-01-08T11:50:51.728Z,20933.00
2023-01-08T11:51:52.642Z,16222.00
2023-01-08T11:52:51.836Z,11041.00
2023-01-08T11:53:51.663Z,6949.00
2023-01-08T11:54:51.686Z,11691.00
2023-01-08T11:55:51.680Z,6247.00
2023-01-08T11:56:51.624Z,4765.00
2023-01-08T11:57:51.655Z,7319.00
2023-01-08T11:58:51.619Z,6782.00
2023-01-08T11:59:51.675Z,5600.00
2023-01-08T12:00:51.646Z,4912.00
2023-01-08T12:01:51.759Z,4394.00
2023-01-08T12:02:51.662Z,4823.00
2023-01-08T12:03:51.630Z,4126.00
2023-01-08T12:04:51.559Z,3942.00
2023-01-08T12:05:51.540Z,2839.00
2023-01-08T12:06:51.553Z,2435.00
2023-01-08T12:07:51.576Z,1988.00
2023-01-08T12:08:51.489Z,1852.00
2023-01-08T12:09:51.513Z,2608.00
2023-01-08T12:10:51.470Z,2395.00
2023-01-08T12:11:51.568Z,2080.00
2023-01-08T12:12:51.509Z,2432.00
2023-01-08T12:13:53.333Z,2440.00
2023-01-08T12:14:51.506Z,2255.00
2023-01-08T12:15:51.480Z,1849.00
2023-01-08T12:16:51.434Z,1859.00
2023-01-08T12:17:51.482Z,1994.00
2023-01-08T12:18:51.391Z,1910.00
2023-01-08T12:19:51.438Z,1797.00
2023-01-08T12:20:51.376Z,1694.00
2023-01-08T12:21:51.367Z,1452.00
2023-01-08T12:22:51.351Z,1318.00
2023-01-08T12:23:51.391Z,1040.00
2023-01-08T12:24:51.368Z,846.00
2023-01-08T12:25:51.355Z,901.00
2023-01-08T12:26:51.368Z,977.00
2023-01-08T12:27:58.611Z,923.00
2023-01-08T12:28:51.415Z,790.00
2023-01-08T12:29:51.294Z,706.00
2023-01-08T12:30:51.278Z,602.00
2023-01-08T12:32:02.024Z,728.00
2023-01-08T12:32:51.347Z,827.00
2023-01-08T12:33:51.261Z,821.00
2023-01-08T12:34:51.262Z,646.00
2023-01-08T12:35:51.243Z,577.00
2023-01-08T12:36:51.241Z,413.00
2023-01-08T12:37:52.116Z,524.00
2023-01-08T12:38:51.259Z,644.00
2023-01-08T12:39:51.167Z,646.00
2023-01-08T12:40:51.162Z,580.00
2023-01-08T12:41:51.195Z,524.00
2023-01-08T12:43:00.522Z,457.00
2023-01-08T12:43:51.176Z,487.00
2023-01-08T12:44:51.145Z,558.00
2023-01-08T12:45:51.198Z,524.00
2023-01-08T12:46:51.128Z,461.00
2023-01-08T12:47:51.109Z,408.00
2023-01-08T12:48:52.006Z,487.00
2023-01-08T12:49:51.076Z,397.00
2023-01-08T12:50:51.125Z,308.00